createdAt,value
2023-02-13T00:08:25.515Z,20.99609375
2023-02-13T00:18:25.574Z,20.60546875
2023-02-13T00:28:25.465Z,20.99609375
2023-02-13T00:38:25.346Z,21.20361328125
2023-02-13T00:48:25.726Z,21.39892578125
2023-02-13T00:58:25.381Z,20.39794921875
2023-02-13T01:08:25.111Z,20.20263671875
2023-02-13T01:18:25.077Z,19.8974609375
2023-02-13T01:28:25.133Z,20.49560546875
2023-02-13T01:38:24.861Z,20.703125
2023-02-13T01:48:24.829Z,20.80078125
2023-02-13T01:58:24.879Z,21.39892578125
2023-02-13T02:08:24.634Z,21.59423828125
2023-02-13T02:18:24.609Z,21.59423828125
2023-02-13T02:28:24.672Z,21.30126953125
2023-02-13T02:38:24.549Z,20.60546875
2023-02-13T02:48:24.391Z,20.20263671875
2023-02-13T02:58:24.327Z,20.60546875
2023-02-13T03:08:24.216Z,20.20263671875
2023-02-13T03:18:24.154Z,20.10498046875
2023-02-13T03:28:24.139Z,19.49462890625
2023-02-13T03:38:24.001Z,19.9951171875
2023-02-13T03:48:23.971Z,19.20166015625
2023-02-13T03:58:23.940Z,18.798828125
2023-02-13T04:08:23.936Z,18.603515625
2023-02-13T04:18:23.860Z,18.994140625
2023-02-13T04:28:23.773Z,18.994140625
2023-02-13T04:38:23.623Z,18.20068359375
2023-02-13T04:48:23.524Z,17.8955078125
2023-02-13T04:58:23.468Z,17.29736328125
2023-02-13T05:08:23.393Z,17.00439453125
2023-02-13T05:18:23.348Z,17.19970703125
2023-02-13T05:28:23.318Z,17.10205078125
2023-02-13T05:38:23.382Z,17.19970703125
2023-02-13T05:48:23.149Z,17.00439453125
2023-02-13T05:58:23.025Z,16.89453125
2023-02-13T06:08:22.974Z,16.796875
2023-02-13T06:18:22.983Z,16.796875
2023-02-13T06:28:22.902Z,16.69921875
2023-02-13T06:38:22.876Z,16.6015625
2023-02-13T06:48:22.661Z,16.39404296875
2023-02-13T06:58:22.577Z,16.39404296875
2023-02-13T07:08:22.539Z,16.29638671875
2023-02-13T07:18:22.446Z,16.10107421875
2023-02-13T07:28:22.490Z,16.10107421875
2023-02-13T07:38:22.357Z,16.10107421875
2023-02-13T07:48:22.231Z,16.10107421875
2023-02-13T07:58:22.267Z,16.19873046875
2023-02-13T08:08:22.093Z,15.90576171875
2023-02-13T08:18:22.011Z,15.90576171875
2023-02-13T08:28:21.952Z,15.6982421875
2023-02-13T08:38:21.903Z,15.6982421875
2023-02-13T08:48:21.812Z,15.6982421875
2023-02-13T08:58:21.753Z,15.6005859375
2023-02-13T09:08:21.685Z,15.5029296875
2023-02-13T09:18:21.646Z,15.5029296875
2023-02-13T09:28:21.640Z,15.5029296875
2023-02-13T09:38:21.477Z,15.5029296875
2023-02-13T09:48:21.419Z,15.4052734375
2023-02-13T09:58:21.385Z,15.4052734375
2023-02-13T10:08:21.248Z,15.4052734375
2023-02-13T10:18:21.234Z,15.29541015625
2023-02-13T10:28:21.204Z,15.19775390625
2023-02-13T10:38:21.124Z,15.19775390625
2023-02-13T10:48:20.995Z,15.10009765625
2023-02-13T10:58:21.061Z,15.19775390625
2023-02-13T11:08:20.816Z,15.19775390625
2023-02-13T11:18:20.879Z,15.19775390625
2023-02-13T11:28:20.746Z,15.19775390625
2023-02-13T11:38:20.610Z,15.29541015625
2023-02-13T11:48:20.528Z,15.29541015625
2023-02-13T11:58:20.522Z,15.29541015625
2023-02-13T12:08:20.432Z,15.29541015625
2023-02-13T12:18:20.467Z,15.4052734375
2023-02-13T12:28:20.319Z,15.19775390625
2023-02-13T12:38:20.227Z,15.5029296875
2023-02-13T12:48:20.150Z,15.29541015625
2023-02-13T12:58:20.060Z,15.19775390625
2023-02-13T13:08:19.962Z,15.19775390625
2023-02-13T13:18:19.883Z,15.29541015625
2023-02-13T13:28:19.826Z,15.19775390625
2023-02-13T13:38:19.759Z,15.29541015625
2023-02-13T13:48:19.670Z,15.10009765625
2023-02-13T13:58:19.637Z,15.00244140625
2023-02-13T14:08:19.549Z,15.00244140625
2023-02-13T14:18:19.480Z,15.00244140625
2023-02-13T14:28:19.400Z,14.90478515625
2023-02-13T14:38:19.328Z,14.90478515625
2023-02-13T14:48:19.248Z,14.90478515625
2023-02-13T14:58:19.207Z,15.00244140625
2023-02-13T15:08:19.192Z,15.10009765625
2023-02-13T15:18:19.066Z,15.10009765625
2023-02-13T15:28:18.947Z,15.10009765625
2023-02-13T15:38:18.972Z,15.00244140625
2023-02-13T15:48:18.807Z,15.10009765625
2023-02-13T15:58:18.759Z,15.19775390625
2023-02-13T16:08:18.685Z,15.19775390625
2023-02-13T16:18:18.630Z,15.19775390625
2023-02-13T16:28:18.513Z,15.10009765625
2023-02-13T16:38:18.515Z,15.10009765625
2023-02-13T16:48:18.498Z,15.10009765625
2023-02-13T16:58:18.438Z,15.00244140625
2023-02-13T17:08:18.283Z,15.10009765625
2023-02-13T17:18:18.195Z,15.29541015625
2023-02-13T17:28:18.112Z,15.29541015625
2023-02-13T17:38:18.025Z,15.29541015625
2023-02-13T17:48:17.994Z,15.4052734375
2023-02-13T17:58:17.916Z,15.4052734375
2023-02-13T18:08:17.816Z,15.4052734375
2023-02-13T18:18:17.728Z,15.4052734375
2023-02-13T18:28:17.665Z,15.29541015625
2023-02-13T18:38:17.738Z,15.29541015625
2023-02-13T18:48:17.560Z,15.29541015625
2023-02-13T18:58:17.457Z,15.29541015625
2023-02-13T19:08:17.382Z,15.29541015625
2023-02-13T19:18:17.345Z,15.29541015625
2023-02-13T19:28:17.302Z,15.4052734375
2023-02-13T19:38:17.213Z,15.5029296875
2023-02-13T19:48:17.144Z,15.6005859375
2023-02-13T19:58:17.094Z,15.6982421875
2023-02-13T20:08:16.970Z,15.6982421875
2023-02-13T20:18:17.043Z,15.90576171875
2023-02-13T20:28:16.869Z,16.10107421875
2023-02-13T20:38:16.756Z,16.00341796875
2023-02-13T20:48:16.682Z,16.10107421875
2023-02-13T20:58:16.625Z,15.90576171875
2023-02-13T21:08:16.546Z,15.90576171875
2023-02-13T21:18:16.504Z,15.90576171875
2023-02-13T21:28:16.411Z,15.90576171875
2023-02-13T21:38:16.373Z,15.90576171875
2023-02-13T21:48:16.326Z,16.00341796875
2023-02-13T21:58:16.285Z,15.90576171875
2023-02-13T22:08:16.158Z,15.90576171875
2023-02-13T22:18:16.159Z,15.90576171875
2023-02-13T22:28:16.068Z,16.00341796875
2023-02-13T22:38:16.158Z,16.00341796875
2023-02-13T22:48:15.878Z,16.00341796875
2023-02-13T22:58:15.870Z,16.00341796875
2023-02-13T23:08:15.724Z,16.00341796875
2023-02-13T23:18:15.660Z,16.19873046875
2023-02-13T23:28:15.593Z,16.10107421875
2023-02-13T23:38:15.685Z,16.10107421875
2023-02-13T23:48:15.480Z,15.90576171875
2023-02-13T23:58:15.436Z,16.10107421875
